Time;durP1;ratioP1;P1;durP2;ratioP2;P2;SDS_P1;SDS_P2;PMS_P1;PMS_P2;Temp;Humidity;BMP_temperature;BMP_pressure;BME280_temperature;BME280_humidity;BME280_pressure;Samples;Min_cycle;Max_cycle;Signal;HPM_P1;HPM_P2
2021/04/01 00:00:40;;;;;;;14.63;9.60;;;16.30;52.30;;;;;;5021694;28;20186;-80
2021/04/01 00:03:06;;;;;;;19.75;9.90;;;16.30;52.40;;;;;;5019874;28;20194;-80
2021/04/01 00:05:32;;;;;;;12.85;9.65;;;16.30;52.40;;;;;;5023041;28;20174;-80
2021/04/01 00:07:58;;;;;;;12.98;9.52;;;16.30;52.60;;;;;;5006470;28;20171;-80
2021/04/01 00:10:29;;;;;;;16.30;10.55;;;16.30;52.60;;;;;;5024989;28;20162;-80
2021/04/01 00:12:55;;;;;;;16.80;10.30;;;16.30;52.80;;;;;;5004723;28;20261;-80
2021/04/01 00:15:21;;;;;;;18.10;9.90;;;16.30;52.80;;;;;;5019114;28;20190;-80
2021/04/01 00:17:47;;;;;;;16.10;10.05;;;16.20;52.90;;;;;;5016476;28;20593;-80
2021/04/01 00:20:16;;;;;;;16.17;10.27;;;16.20;53.00;;;;;;5015676;28;20557;-80
2021/04/01 00:22:42;;;;;;;14.00;10.73;;;16.20;53.00;;;;;;5016815;28;20202;-80
2021/04/01 00:25:10;;;;;;;18.88;10.43;;;16.10;53.00;;;;;;5014678;28;20162;-80
2021/04/01 00:27:36;;;;;;;13.90;9.70;;;16.10;53.20;;;;;;5016846;28;20195;-79
2021/04/01 00:30:04;;;;;;;13.77;10.30;;;16.10;53.40;;;;;;4998010;28;20281;-80
2021/04/01 00:32:30;;;;;;;18.63;12.15;;;16.00;53.40;;;;;;5000306;28;20228;-79
2021/04/01 00:34:55;;;;;;;15.90;12.17;;;16.00;53.50;;;;;;4999908;28;20170;-81
2021/04/01 00:37:21;;;;;;;17.10;12.00;;;16.00;53.50;;;;;;5016949;28;20202;-80
2021/04/01 00:39:47;;;;;;;17.77;12.57;;;16.00;53.60;;;;;;5012977;28;20220;-80
2021/04/01 00:42:14;;;;;;;18.87;13.37;;;16.00;53.70;;;;;;4996624;28;20198;-80
2021/04/01 00:44:40;;;;;;;14.13;12.23;;;15.90;53.80;;;;;;5012499;28;20166;-81
2021/04/01 00:47:07;;;;;;;18.93;12.37;;;15.90;54.00;;;;;;5013789;28;20555;-80
2021/04/01 00:49:35;;;;;;;17.42;13.30;;;15.90;54.10;;;;;;5012513;28;20174;-80
2021/04/01 00:52:01;;;;;;;20.83;11.50;;;15.90;54.20;;;;;;4981824;28;20174;-81
2021/04/01 00:54:28;;;;;;;18.30;13.20;;;15.80;54.20;;;;;;5015088;28;20163;-81
2021/04/01 00:56:54;;;;;;;16.17;11.68;;;15.80;54.40;;;;;;5053698;22;20668;-79
2021/04/01 00:59:34;;;;;;;15.02;12.50;;;15.80;54.50;;;;;;5072386;28;20210;-77
2021/04/01 01:02:16;;;;;;;17.55;11.93;;;15.80;54.70;;;;;;5072720;28;20204;-77
2021/04/01 01:04:48;;;;;;;17.50;12.45;;;15.80;54.80;;;;;;5053667;28;20319;-77
2021/04/01 01:07:21;;;;;;;17.25;13.70;;;15.80;55.00;;;;;;5071032;28;20669;-78
2021/04/01 01:09:50;;;;;;;15.13;12.35;;;15.70;54.80;;;;;;5071401;28;20163;-77
2021/04/01 01:12:16;;;;;;;16.98;12.18;;;15.70;54.80;;;;;;5036874;28;20175;-78
2021/04/01 01:14:41;;;;;;;20.17;13.30;;;15.70;55.00;;;;;;5053446;28;20168;-77
2021/04/01 01:17:07;;;;;;;18.93;14.23;;;15.70;55.10;;;;;;5071062;28;20188;-78
2021/04/01 01:19:37;;;;;;;20.53;14.40;;;15.70;55.20;;;;;;5053426;28;20759;-77
2021/04/01 01:22:06;;;;;;;22.40;14.48;;;15.70;55.40;;;;;;5053509;28;20674;-77
2021/04/01 01:24:33;;;;;;;17.60;12.10;;;15.70;55.40;;;;;;5053300;28;20631;-77
2021/04/01 01:27:00;;;;;;;28.23;14.60;;;15.70;55.50;;;;;;5053049;28;20187;-77
2021/04/01 01:29:26;;;;;;;17.98;11.80;;;15.70;55.60;;;;;;5053545;28;20179;-77
2021/04/01 01:31:52;;;;;;;14.50;10.83;;;15.70;55.80;;;;;;5053129;28;20180;-79
2021/04/01 01:34:19;;;;;;;14.23;11.03;;;15.70;55.90;;;;;;5053295;28;20655;-78
2021/04/01 01:36:44;;;;;;;15.55;10.60;;;15.70;56.00;;;;;;5038826;28;20191;-78
2021/04/01 01:39:13;;;;;;;14.13;11.07;;;15.70;56.10;;;;;;5054762;28;20510;-77
2021/04/01 01:41:39;;;;;;;16.50;11.77;;;15.70;56.20;;;;;;5071146;28;20179;-77
2021/04/01 01:44:05;;;;;;;13.13;10.30;;;15.70;56.30;;;;;;5053351;28;20176;-77
2021/04/01 01:46:31;;;;;;;14.70;11.37;;;15.70;56.40;;;;;;5052591;28;20609;-77
2021/04/01 01:49:00;;;;;;;15.95;9.57;;;15.70;56.50;;;;;;5036600;28;20620;-77
2021/04/01 01:51:29;;;;;;;12.82;10.05;;;15.60;56.60;;;;;;5071062;28;20356;-78
2021/04/01 01:53:57;;;;;;;15.32;9.45;;;15.70;56.80;;;;;;5071124;28;20632;-78
2021/04/01 01:56:26;;;;;;;14.00;10.43;;;15.70;56.90;;;;;;5070691;28;20226;-79
2021/04/01 01:58:57;;;;;;;13.55;9.98;;;15.60;57.00;;;;;;5019880;28;20299;-78
2021/04/01 02:01:26;;;;;;;13.25;9.95;;;15.60;57.30;;;;;;5053144;28;20179;-77
2021/04/01 02:03:52;;;;;;;17.00;10.48;;;15.60;57.20;;;;;;5054352;28;20274;-80
2021/04/01 02:06:20;;;;;;;17.05;10.30;;;15.60;57.40;;;;;;5039913;28;20520;-79
2021/04/01 02:08:49;;;;;;;13.90;9.65;;;15.50;57.40;;;;;;5074576;28;20164;-78
2021/04/01 02:11:16;;;;;;;16.55;10.75;;;15.60;57.70;;;;;;5056581;28;20639;-78
2021/04/01 02:13:42;;;;;;;15.82;11.18;;;15.50;57.60;;;;;;5059258;28;20204;-78
2021/04/01 02:16:12;;;;;;;12.80;10.70;;;15.50;57.70;;;;;;5075791;28;20187;-78
2021/04/01 02:18:38;;;;;;;18.65;10.88;;;15.50;58.00;;;;;;5056167;28;20172;-78
2021/04/01 02:21:04;;;;;;;14.23;9.37;;;15.40;57.90;;;;;;5074512;28;20175;-77
2021/04/01 02:23:34;;;;;;;14.32;10.05;;;15.40;58.00;;;;;;5039779;28;20195;-77
2021/04/01 02:26:01;;;;;;;17.52;11.68;;;15.40;58.30;;;;;;5056406;28;20285;-78
2021/04/01 02:28:29;;;;;;;14.50;10.70;;;15.40;58.30;;;;;;5073572;28;20273;-77
2021/04/01 02:31:00;;;;;;;14.98;11.27;;;15.40;58.50;;;;;;5074194;28;20168;-78
2021/04/01 02:33:29;;;;;;;15.00;10.63;;;15.40;58.70;;;;;;5074205;28;20173;-78
2021/04/01 02:35:58;;;;;;;12.15;10.48;;;15.40;58.80;;;;;;5056343;28;20173;-79
2021/04/01 02:38:24;;;;;;;14.77;11.73;;;15.40;58.80;;;;;;5055921;28;20192;-78
2021/04/01 02:40:54;;;;;;;16.75;11.65;;;15.40;58.90;;;;;;5055987;28;20579;-77
2021/04/01 02:43:32;;;;;;;17.35;10.27;;;15.40;59.10;;;;;;5055852;28;20227;-78
2021/04/01 02:46:02;;;;;;;15.50;10.73;;;15.40;59.30;;;;;;5057793;28;20174;-76
2021/04/01 02:48:31;;;;;;;14.27;9.57;;;15.40;59.30;;;;;;5073587;28;20199;-77
2021/04/01 02:50:57;;;;;;;15.70;9.88;;;15.40;59.50;;;;;;5059933;28;20517;-78
2021/04/01 02:53:25;;;;;;;13.73;9.30;;;15.30;59.50;;;;;;5074152;28;20180;-78
2021/04/01 02:55:51;;;;;;;15.30;11.00;;;15.40;59.70;;;;;;5055650;28;20647;-78
2021/04/01 02:58:17;;;;;;;15.97;10.43;;;15.40;59.80;;;;;;5055256;28;20203;-78
2021/04/01 03:00:43;;;;;;;11.75;9.48;;;15.30;59.90;;;;;;5039050;28;20255;-78
2021/04/01 03:05:35;;;;;;;15.83;10.80;;;15.40;60.20;;;;;;5073447;28;20196;-78
2021/04/01 03:08:01;;;;;;;13.02;8.70;;;15.40;60.30;;;;;;5073166;28;20203;-78
2021/04/01 03:10:27;;;;;;;14.70;10.07;;;15.40;60.40;;;;;;5055590;28;20533;-78
2021/04/01 03:12:56;;;;;;;12.70;9.87;;;15.30;60.50;;;;;;5055616;28;20164;-77
2021/04/01 03:15:24;;;;;;;12.63;10.18;;;15.30;61.00;;;;;;5072346;28;20605;-77
2021/04/01 03:17:53;;;;;;;17.37;10.00;;;15.30;61.00;;;;;;5072884;28;20565;-78
2021/04/01 03:20:19;;;;;;;14.25;9.95;;;15.30;61.30;;;;;;5073416;28;20168;-77
2021/04/01 03:22:45;;;;;;;15.15;11.05;;;15.30;61.40;;;;;;5055213;28;20207;-78
2021/04/01 03:25:13;;;;;;;12.57;10.20;;;15.30;61.70;;;;;;5073272;28;20168;-78
2021/04/01 03:27:39;;;;;;;16.33;10.70;;;15.30;61.90;;;;;;5057238;28;20581;-78
2021/04/01 03:30:11;;;;;;;11.80;8.95;;;15.20;62.00;;;;;;5024843;28;20638;-78
2021/04/01 03:32:40;;;;;;;11.68;9.10;;;15.20;62.40;;;;;;5038371;28;20249;-77
2021/04/01 03:35:08;;;;;;;13.50;10.35;;;15.20;62.40;;;;;;5073152;28;20530;-78
2021/04/01 03:37:34;;;;;;;10.98;9.35;;;15.10;62.50;;;;;;5037968;28;20185;-77
2021/04/01 03:40:01;;;;;;;12.70;8.75;;;15.10;62.80;;;;;;5038462;28;20556;-77
2021/04/01 03:42:27;;;;;;;14.77;11.20;;;15.10;63.00;;;;;;5054974;28;20249;-78
2021/04/01 03:44:54;;;;;;;10.13;8.57;;;15.10;63.30;;;;;;5072957;28;20517;-77
2021/04/01 03:47:19;;;;;;;14.32;10.00;;;15.10;63.60;;;;;;5037588;28;20190;-78
2021/04/01 03:49:48;;;;;;;14.20;10.40;;;15.10;63.70;;;;;;5072910;28;20187;-77
2021/04/01 03:52:34;;;;;;;13.48;10.48;;;15.10;64.10;;;;;;5043874;28;20275;-78
2021/04/01 03:55:26;;;;;;;13.80;10.30;;;15.10;64.30;;;;;;5054905;28;20667;-78
2021/04/01 03:58:45;;;;;;;13.52;10.02;;;15.00;64.50;;;;;;5072065;28;20208;-78
2021/04/01 04:14:32;;;;;;;12.73;8.80;;;15.10;65.80;;;;;;5072614;28;20245;-78
2021/04/01 04:16:58;;;;;;;10.90;9.55;;;15.10;65.60;;;;;;5071910;28;20207;-78
2021/04/01 04:19:23;;;;;;;16.27;9.83;;;15.10;65.80;;;;;;5072664;28;20168;-78
2021/04/01 04:21:49;;;;;;;17.40;10.43;;;15.10;66.10;;;;;;5054511;28;20174;-78
2021/04/01 04:24:15;;;;;;;12.18;9.48;;;15.10;66.40;;;;;;5072563;28;20168;-78
2021/04/01 04:26:41;;;;;;;11.40;9.33;;;15.10;66.60;;;;;;5054079;28;20727;-78
2021/04/01 04:29:07;;;;;;;14.23;10.48;;;15.20;66.90;;;;;;5072607;28;20161;-77
2021/04/01 04:31:33;;;;;;;16.93;9.30;;;15.20;67.10;;;;;;5072831;28;20640;-77
2021/04/01 04:33:59;;;;;;;13.13;9.57;;;15.20;67.20;;;;;;5075927;28;20632;-78
2021/04/01 04:36:24;;;;;;;10.70;9.33;;;15.20;67.50;;;;;;5058668;28;20187;-78
2021/04/01 04:38:50;;;;;;;13.23;9.60;;;15.20;67.50;;;;;;5059898;28;20202;-77
2021/04/01 04:41:16;;;;;;;10.53;8.90;;;15.20;67.80;;;;;;5080393;28;20172;-78
2021/04/01 04:43:41;;;;;;;11.00;9.33;;;15.20;68.10;;;;;;5074949;28;20196;-76
2021/04/01 04:46:07;;;;;;;15.40;9.97;;;15.20;68.40;;;;;;5093659;28;20168;-77
2021/04/01 04:48:33;;;;;;;10.23;8.37;;;15.20;68.50;;;;;;5092811;28;20188;-77
2021/04/01 04:50:59;;;;;;;16.63;9.60;;;15.30;68.80;;;;;;5068023;28;20671;-78
2021/04/01 04:53:25;;;;;;;10.17;8.70;;;15.30;69.00;;;;;;5055880;28;20926;-78
2021/04/01 04:56:11;;;;;;;13.43;10.38;;;15.30;70.00;;;;;;5055375;28;20176;-79
2021/04/01 05:01:05;;;;;;;13.23;9.37;;;15.30;69.30;;;;;;5072900;28;20169;-78
2021/04/01 05:09:00;;;;;;;15.05;9.75;;;15.40;69.90;;;;;;5054821;28;20168;-77
2021/04/01 05:11:26;;;;;;;13.23;9.07;;;15.40;69.90;;;;;;5038323;28;20190;-77
2021/04/01 05:13:51;;;;;;;11.70;9.33;;;15.40;70.10;;;;;;5072820;28;20526;-77
2021/04/01 05:16:17;;;;;;;15.70;10.20;;;15.40;70.30;;;;;;5054341;28;20598;-77
2021/04/01 05:18:44;;;;;;;15.17;10.07;;;15.40;70.30;;;;;;5074566;28;20172;-77
2021/04/01 05:21:16;;;;;;;11.70;8.35;;;15.40;70.30;;;;;;5022706;28;20219;-77
2021/04/01 05:23:45;;;;;;;14.30;9.50;;;15.40;70.40;;;;;;5053765;28;20196;-78
2021/04/01 05:28:37;;;;;;;14.63;9.90;;;15.40;70.80;;;;;;5071701;28;20603;-77
2021/04/01 05:31:08;;;;;;;13.13;11.20;;;15.40;71.00;;;;;;5053705;28;20169;-78
2021/04/01 05:33:36;;;;;;;15.32;10.43;;;15.30;71.10;;;;;;5037494;28;20173;-78
2021/04/01 05:36:13;;;;;;;15.50;9.60;;;15.30;71.40;;;;;;5076699;28;20165;-78
2021/04/01 05:38:40;;;;;;;14.32;10.68;;;15.30;71.50;;;;;;5072343;28;20180;-78
2021/04/01 05:41:10;;;;;;;16.25;10.52;;;15.30;71.40;;;;;;5057554;28;20171;-78
2021/04/01 05:43:42;;;;;;;14.38;10.68;;;15.30;72.00;;;;;;5057121;28;20207;-77
2021/04/01 05:46:20;;;;;;;15.80;10.15;;;15.30;72.10;;;;;;5040722;28;20196;-78
2021/04/01 05:49:02;;;;;;;15.32;10.23;;;15.30;72.20;;;;;;5074545;28;20168;-78
2021/04/01 05:57:22;;;;;;;13.93;9.55;;;15.40;72.50;;;;;;5060851;28;20597;-77
2021/04/01 06:02:22;;;;;;;12.55;10.05;;;15.40;73.20;;;;;;5056146;28;20611;-76
2021/04/01 06:04:52;;;;;;;21.15;9.63;;;15.40;73.50;;;;;;5056883;28;20538;-75
2021/04/01 06:07:28;;;;;;;15.70;10.80;;;15.50;73.60;;;;;;5056118;28;20694;-77
2021/04/01 06:10:02;;;;;;;14.70;9.65;;;15.50;74.30;;;;;;5039908;28;20225;-77
2021/04/01 06:12:33;;;;;;;15.20;10.38;;;15.60;74.50;;;;;;5074665;28;20269;-76
2021/04/01 06:15:03;;;;;;;10.68;9.05;;;15.60;74.50;;;;;;5056508;28;20192;-77
2021/04/01 06:17:31;;;;;;;10.23;9.10;;;15.70;74.50;;;;;;5074128;28;20711;-77
2021/04/01 06:20:04;;;;;;;13.00;8.88;;;15.80;74.70;;;;;;5074159;28;20555;-76
2021/04/01 06:22:30;;;;;;;10.75;8.57;;;15.80;74.60;;;;;;5070276;28;20222;-76
2021/04/01 06:25:00;;;;;;;10.15;7.53;;;15.90;74.80;;;;;;5055890;28;20175;-76
2021/04/01 06:27:50;;;;;;;13.52;9.18;;;16.00;74.80;;;;;;5038930;28;20239;-77
2021/04/01 06:32:58;;;;;;;10.25;7.13;;;16.20;75.00;;;;;;5075197;28;20184;-77
2021/04/01 06:40:38;;;;;;;12.48;10.25;;;16.50;75.50;;;;;;5055805;28;20643;-77
2021/04/01 06:43:18;;;;;;;13.80;9.68;;;16.60;75.30;;;;;;5039154;28;20204;-78
2021/04/01 06:45:56;;;;;;;11.90;9.60;;;16.80;75.80;;;;;;5073699;28;20251;-76
2021/04/01 06:48:25;;;;;;;12.88;10.60;;;16.90;75.80;;;;;;5073218;28;21179;-77
2021/04/01 06:51:09;;;;;;;13.70;8.60;;;17.10;75.70;;;;;;5073475;28;20165;-76
2021/04/01 06:59:39;;;;;;;13.07;9.67;;;17.60;75.40;;;;;;5014217;28;20622;-77
2021/04/01 07:02:23;;;;;;;12.97;11.33;;;17.90;75.30;;;;;;5044788;28;20618;-78
2021/04/01 07:04:53;;;;;;;14.50;12.33;;;18.20;75.00;;;;;;5049390;28;20586;-77
2021/04/01 07:07:22;;;;;;;17.27;12.77;;;18.70;75.50;;;;;;5072565;28;21000;-77
2021/04/01 07:10:16;;;;;;;16.17;11.50;;;19.30;75.70;;;;;;5040700;28;20627;-77
2021/04/01 07:12:45;;;;;;;16.10;11.00;;;19.90;75.70;;;;;;5035982;28;20595;-76
2021/04/01 07:15:16;;;;;;;11.83;9.97;;;20.80;76.30;;;;;;5018308;28;20649;-76
2021/04/01 07:17:58;;;;;;;14.20;9.77;;;21.50;75.60;;;;;;5052283;28;20619;-78
2021/04/01 07:34:48;;;;;;;13.37;11.40;;;26.40;65.90;;;;;;5028109;28;20576;-78
2021/04/01 07:48:46;;;;;;;18.10;16.20;;;29.70;58.60;;;;;;5039007;28;20660;-77
2021/04/01 07:54:08;;;;;;;22.50;18.30;;;30.60;55.20;;;;;;5032661;28;20587;-77
2021/04/01 07:56:48;;;;;;;22.53;18.10;;;31.20;54.80;;;;;;5033020;28;20607;-78
2021/04/01 08:02:24;;;;;;;25.60;20.67;;;31.90;53.10;;;;;;5071998;28;20658;-76
2021/04/01 08:04:53;;;;;;;25.53;20.73;;;32.20;52.20;;;;;;5049525;28;21133;-78
2021/04/01 08:07:22;;;;;;;26.07;22.40;;;32.50;51.20;;;;;;5072252;28;20594;-78
2021/04/01 08:09:58;;;;;;;24.07;19.90;;;32.70;49.30;;;;;;5016994;28;20579;-77
2021/04/01 08:12:29;;;;;;;37.03;25.47;;;32.90;49.20;;;;;;5034825;28;20571;-77
2021/04/01 08:15:07;;;;;;;27.90;24.00;;;33.10;48.20;;;;;;5000499;28;21124;-79
2021/04/01 08:17:42;;;;;;;30.50;23.47;;;33.30;47.60;;;;;;5038145;28;20628;-77
2021/04/01 08:20:23;;;;;;;29.40;24.13;;;33.50;47.00;;;;;;5047000;28;20591;-77
2021/04/01 08:22:58;;;;;;;27.77;23.60;;;33.70;46.10;;;;;;5015198;28;20621;-78
2021/04/01 08:25:25;;;;;;;27.07;23.93;;;33.80;45.10;;;;;;5020626;28;20679;-76
2021/04/01 08:28:21;;;;;;;31.33;26.53;;;33.90;44.90;;;;;;5038352;28;20617;-75
2021/04/01 08:36:10;;;;;;;32.27;26.93;;;34.20;42.70;;;;;;5051132;28;21001;-76
2021/04/01 08:38:39;;;;;;;32.13;28.47;;;34.30;42.30;;;;;;5021114;28;20657;-75
2021/04/01 08:41:34;;;;;;;35.80;29.00;;;34.50;41.80;;;;;;5031163;28;20598;-76
2021/04/01 08:44:29;;;;;;;33.83;28.77;;;34.60;41.60;;;;;;4996754;28;20657;-76
2021/04/01 08:47:19;;;;;;;34.57;29.60;;;34.80;40.60;;;;;;5031023;28;20595;-76
2021/04/01 08:50:46;;;;;;;39.20;31.63;;;34.90;40.00;;;;;;5030140;28;21084;-76
2021/04/01 08:53:35;;;;;;;34.90;30.90;;;35.00;39.90;;;;;;5012586;28;20630;-76
2021/04/01 08:56:22;;;;;;;33.63;29.30;;;35.10;39.50;;;;;;5031366;28;20568;-76
2021/04/01 08:59:21;;;;;;;39.20;30.97;;;35.20;38.80;;;;;;5047682;28;20585;-75
2021/04/01 09:01:54;;;;;;;35.90;30.00;;;35.30;38.30;;;;;;5054459;28;20922;-77
2021/04/01 09:04:29;;;;;;;35.20;29.40;;;35.40;38.30;;;;;;5056439;28;20928;-76
2021/04/01 09:07:17;;;;;;;31.43;26.60;;;35.50;37.70;;;;;;5050291;28;20626;-76
2021/04/01 09:09:50;;;;;;;32.03;26.63;;;35.70;38.10;;;;;;5017008;28;20577;-75
2021/04/01 09:12:28;;;;;;;33.83;27.97;;;35.70;37.00;;;;;;5033146;28;20631;-75
2021/04/01 09:14:59;;;;;;;31.80;26.17;;;35.80;36.60;;;;;;5054506;28;21120;-75
2021/04/01 09:17:35;;;;;;;30.50;24.90;;;35.90;36.10;;;;;;5028755;28;21080;-77
2021/04/01 09:20:11;;;;;;;28.80;23.37;;;35.90;35.60;;;;;;5071465;28;20601;-76
2021/04/01 09:22:43;;;;;;;35.07;27.30;;;35.90;35.40;;;;;;5070507;28;21162;-76
2021/04/01 09:25:09;;;;;;;28.33;22.83;;;35.80;34.80;;;;;;5048989;28;20969;-75
2021/04/01 09:27:46;;;;;;;29.70;25.00;;;35.80;34.80;;;;;;5039480;28;20618;-74
2021/04/01 09:30:13;;;;;;;30.30;24.17;;;35.80;34.50;;;;;;5041561;28;20663;-76
2021/04/01 09:32:41;;;;;;;30.27;24.07;;;35.70;34.70;;;;;;5056807;28;20720;-75
2021/04/01 09:35:09;;;;;;;26.87;22.90;;;35.70;34.30;;;;;;5074313;28;20585;-76
2021/04/01 09:37:46;;;;;;;28.10;23.07;;;35.80;34.20;;;;;;5042010;28;21073;-75
2021/04/01 09:40:15;;;;;;;26.90;23.90;;;36.00;34.40;;;;;;5057259;28;20585;-75
2021/04/01 09:42:42;;;;;;;32.10;25.10;;;36.10;33.90;;;;;;5074561;28;20647;-76
2021/04/01 09:45:26;;;;;;;29.00;24.13;;;36.30;33.70;;;;;;5074247;28;20574;-76
2021/04/01 09:48:01;;;;;;;29.30;24.30;;;36.30;33.40;;;;;;5057135;28;20601;-76
2021/04/01 09:50:34;;;;;;;29.93;23.13;;;36.20;33.10;;;;;;5074513;28;20572;-75
2021/04/01 09:53:18;;;;;;;29.70;24.07;;;36.30;33.10;;;;;;5056326;28;20613;-75
2021/04/01 09:55:47;;;;;;;31.93;26.43;;;36.30;33.00;;;;;;5039770;28;20567;-76
2021/04/01 09:58:21;;;;;;;31.30;25.27;;;36.20;32.30;;;;;;5048802;28;20666;-78
2021/04/01 10:03:38;;;;;;;26.50;22.30;;;36.20;32.60;;;;;;5034429;28;20579;-78
2021/04/01 10:06:04;;;;;;;30.03;23.00;;;36.30;32.50;;;;;;5034492;28;20586;-77
2021/04/01 10:08:37;;;;;;;31.90;24.90;;;36.30;32.40;;;;;;5035308;28;20685;-77
2021/04/01 10:11:12;;;;;;;26.70;22.30;;;36.30;32.30;;;;;;5035647;28;20633;-77
2021/04/01 10:13:38;;;;;;;29.90;23.60;;;36.40;32.70;;;;;;5050046;28;20630;-77
2021/04/01 10:16:25;;;;;;;28.70;23.70;;;36.50;32.30;;;;;;5054511;28;20579;-75
2021/04/01 10:18:51;;;;;;;27.10;20.17;;;36.50;31.90;;;;;;5029415;28;20583;-78
2021/04/01 10:21:25;;;;;;;24.77;20.13;;;36.40;31.70;;;;;;5003768;28;20605;-77
2021/04/01 10:24:01;;;;;;;25.87;19.60;;;36.40;31.40;;;;;;5036188;28;20576;-77
2021/04/01 10:27:03;;;;;;;18.87;16.50;;;36.30;31.40;;;;;;5036382;28;20621;-76
2021/04/01 10:32:53;;;;;;;21.03;16.70;;;36.10;31.00;;;;;;5038340;28;20639;-76
2021/04/01 10:35:28;;;;;;;21.93;17.23;;;35.90;31.30;;;;;;5040885;28;20587;-76
2021/04/01 10:37:56;;;;;;;23.37;17.03;;;35.70;31.50;;;;;;4999283;28;20598;-75
2021/04/01 10:40:23;;;;;;;20.90;16.17;;;35.50;31.60;;;;;;5033509;28;20725;-74
2021/04/01 10:43:09;;;;;;;21.57;15.80;;;35.20;31.50;;;;;;5016111;28;20569;-75
2021/04/01 10:45:39;;;;;;;22.03;15.40;;;34.90;31.80;;;;;;5033481;28;20976;-75
2021/04/01 10:48:33;;;;;;;23.13;16.13;;;34.60;32.00;;;;;;5033002;28;20689;-76
2021/04/01 10:51:04;;;;;;;22.67;17.90;;;34.30;32.10;;;;;;5032063;28;21145;-76
2021/04/01 10:53:38;;;;;;;23.80;16.33;;;33.90;32.20;;;;;;4979117;28;20629;-75
2021/04/01 10:56:09;;;;;;;21.50;15.17;;;33.50;32.60;;;;;;5033346;28;20941;-75
2021/04/01 10:58:45;;;;;;;17.30;13.70;;;33.30;33.00;;;;;;5050355;28;20671;-75
2021/04/01 11:01:12;;;;;;;23.10;14.93;;;33.10;33.20;;;;;;5031998;28;20583;-76
2021/04/01 11:03:44;;;;;;;19.40;13.77;;;32.90;33.30;;;;;;5055183;28;20578;-77
2021/04/01 11:06:12;;;;;;;19.20;13.53;;;32.80;33.50;;;;;;5048703;28;20953;-76
2021/04/01 11:08:43;;;;;;;19.60;13.57;;;32.70;33.80;;;;;;5054520;28;20583;-76
2021/04/01 11:11:11;;;;;;;19.60;13.67;;;32.60;34.00;;;;;;5053063;28;20594;-75
2021/04/01 11:13:39;;;;;;;17.47;13.63;;;32.50;34.10;;;;;;5054924;28;20625;-76
2021/04/01 11:16:09;;;;;;;19.80;12.27;;;32.50;34.20;;;;;;5035486;28;20575;-76
2021/04/01 11:18:38;;;;;;;20.20;14.00;;;32.70;34.50;;;;;;5034033;28;21206;-76
2021/04/01 11:21:06;;;;;;;17.40;13.10;;;32.70;34.50;;;;;;5053181;28;20575;-76
2021/04/01 11:23:36;;;;;;;25.17;14.27;;;32.70;34.20;;;;;;5055106;28;20575;-79
2021/04/01 11:26:26;;;;;;;17.80;13.63;;;32.70;33.90;;;;;;5057008;28;20575;-77
2021/04/01 11:28:53;;;;;;;25.33;15.63;;;32.60;34.20;;;;;;5057916;28;20592;-77
2021/04/01 11:31:23;;;;;;;17.27;13.00;;;32.50;34.20;;;;;;5072548;28;20672;-77
2021/04/01 11:33:53;;;;;;;21.77;15.60;;;32.50;34.30;;;;;;5054808;28;20626;-77
2021/04/01 11:36:21;;;;;;;21.37;14.67;;;32.40;34.50;;;;;;5071385;28;20938;-77
2021/04/01 11:38:56;;;;;;;20.97;15.30;;;32.40;34.60;;;;;;5054437;28;20613;-76
2021/04/01 11:41:23;;;;;;;20.57;15.13;;;32.30;34.50;;;;;;5072302;28;20928;-77
2021/04/01 11:43:53;;;;;;;22.00;14.60;;;32.30;34.80;;;;;;5055246;28;20566;-77
2021/04/01 11:46:20;;;;;;;24.20;16.47;;;32.10;34.80;;;;;;5053986;28;20574;-77
2021/04/01 11:48:47;;;;;;;24.63;16.80;;;32.10;34.80;;;;;;5054292;28;20669;-78
2021/04/01 11:51:18;;;;;;;25.53;18.07;;;32.00;34.70;;;;;;5037574;28;20571;-78
2021/04/01 11:53:44;;;;;;;27.70;20.07;;;31.90;35.10;;;;;;5053951;28;20618;-76
2021/04/01 11:56:10;;;;;;;32.83;21.33;;;31.90;35.10;;;;;;5054169;28;21203;-78
2021/04/01 11:58:36;;;;;;;28.00;20.10;;;31.80;35.10;;;;;;5055395;28;20622;-76
2021/04/01 12:01:08;;;;;;;27.67;19.53;;;31.60;35.00;;;;;;5051042;28;20172;-78
2021/04/01 12:06:20;;;;;;;22.60;17.10;;;31.30;35.30;;;;;;5051470;28;20583;-77
2021/04/01 12:08:46;;;;;;;29.13;19.30;;;31.30;35.60;;;;;;5016618;28;20596;-76
2021/04/01 12:11:14;;;;;;;27.80;19.50;;;31.20;35.70;;;;;;5036572;28;20613;-78
2021/04/01 12:13:43;;;;;;;28.67;19.30;;;31.00;35.60;;;;;;5033526;28;20655;-78
2021/04/01 12:16:24;;;;;;;29.60;19.97;;;30.90;35.70;;;;;;5051714;28;20564;-78
2021/04/01 12:18:50;;;;;;;32.50;22.93;;;30.70;35.80;;;;;;5017380;28;20577;-77
2021/04/01 12:21:18;;;;;;;29.50;19.97;;;30.60;36.00;;;;;;5017724;28;20576;-77
2021/04/01 12:23:58;;;;;;;30.10;22.00;;;30.50;36.20;;;;;;5033958;28;20586;-78
2021/04/01 12:26:29;;;;;;;34.80;23.80;;;30.30;36.40;;;;;;5001234;28;20715;-77
2021/04/01 12:29:06;;;;;;;31.17;22.60;;;30.30;36.60;;;;;;5017098;28;20665;-78
2021/04/01 12:31:38;;;;;;;37.63;25.83;;;30.10;36.70;;;;;;5017422;28;20575;-77
2021/04/01 12:34:04;;;;;;;34.90;24.60;;;30.00;36.90;;;;;;5033422;28;20991;-79
2021/04/01 12:36:41;;;;;;;33.00;23.87;;;29.80;36.90;;;;;;5051057;28;20567;-78
2021/04/01 12:39:10;;;;;;;30.97;21.90;;;29.60;37.00;;;;;;5050502;28;20575;-77
2021/04/01 12:41:39;;;;;;;36.80;23.47;;;29.40;37.20;;;;;;5050169;28;21165;-78
2021/04/01 12:44:08;;;;;;;33.13;24.53;;;29.20;37.50;;;;;;5029473;28;20579;-77
2021/04/01 12:46:41;;;;;;;28.97;22.17;;;29.00;37.70;;;;;;5029596;28;20637;-77
2021/04/01 12:49:14;;;;;;;26.30;17.70;;;28.90;37.90;;;;;;5038623;28;20570;-77
2021/04/01 12:51:46;;;;;;;32.70;23.67;;;28.80;37.80;;;;;;5048726;28;20586;-76
2021/04/01 12:54:18;;;;;;;30.53;21.73;;;28.70;37.80;;;;;;5043516;28;20614;-77
2021/04/01 12:56:51;;;;;;;33.17;22.27;;;28.60;38.00;;;;;;5032837;28;21022;-77
2021/04/01 12:59:24;;;;;;;41.50;26.33;;;28.50;38.10;;;;;;5047364;28;20591;-77
2021/04/01 13:01:58;;;;;;;33.90;24.87;;;28.40;38.30;;;;;;5016318;28;20580;-76
2021/04/01 13:04:26;;;;;;;35.80;23.57;;;28.20;38.20;;;;;;5032808;28;20578;-76
2021/04/01 13:09:40;;;;;;;38.80;27.27;;;28.00;38.80;;;;;;5016515;28;20583;-77
2021/04/01 13:12:17;;;;;;;36.60;25.67;;;27.90;38.70;;;;;;5033214;28;20967;-76
2021/04/01 13:14:45;;;;;;;40.00;25.37;;;27.60;38.60;;;;;;5032915;28;20614;-77
2021/04/01 13:17:20;;;;;;;37.80;24.20;;;27.30;38.20;;;;;;5017692;28;20641;-76
2021/04/01 13:19:45;;;;;;;35.60;24.00;;;27.00;38.20;;;;;;5024404;28;20571;-78
2021/04/01 13:22:21;;;;;;;35.07;22.50;;;26.60;38.20;;;;;;5017193;28;20561;-79
2021/04/01 13:27:16;;;;;;;33.17;22.37;;;26.10;38.40;;;;;;5031850;28;20634;-77
2021/04/01 13:29:57;;;;;;;36.07;19.97;;;25.90;38.60;;;;;;5031844;28;20595;-78
2021/04/01 13:36:05;;;;;;;35.57;24.33;;;25.50;39.60;;;;;;5048313;28;20575;-78
2021/04/01 13:38:51;;;;;;;32.77;24.27;;;25.30;39.80;;;;;;5035832;28;20633;-78
2021/04/01 13:41:23;;;;;;;36.43;23.40;;;25.10;40.40;;;;;;5032895;28;20575;-78
2021/04/01 13:43:53;;;;;;;33.43;25.70;;;25.00;40.70;;;;;;5023613;28;21006;-77
2021/04/01 13:46:19;;;;;;;34.60;25.50;;;24.90;40.70;;;;;;5030357;28;20680;-78
2021/04/01 13:48:47;;;;;;;32.57;25.77;;;24.70;41.70;;;;;;5000401;28;20628;-76
2021/04/01 13:51:17;;;;;;;38.07;28.37;;;24.60;41.30;;;;;;5006513;28;20616;-78
2021/04/01 13:53:52;;;;;;;39.53;29.07;;;24.50;41.90;;;;;;5048333;28;21239;-77
2021/04/01 13:56:27;;;;;;;35.10;28.40;;;24.40;42.40;;;;;;5053117;28;20579;-77
2021/04/01 14:10:11;;;;;;;44.40;35.67;;;23.80;43.90;;;;;;5086266;28;20983;-77
2021/04/01 14:12:37;;;;;;;47.20;34.70;;;23.70;44.10;;;;;;5076513;28;20589;-77
2021/04/01 14:15:09;;;;;;;52.60;37.87;;;23.60;44.30;;;;;;5059633;28;20574;-78
2021/04/01 14:17:37;;;;;;;51.67;40.33;;;23.50;44.50;;;;;;5093872;28;20703;-77
2021/04/01 14:20:07;;;;;;;55.67;42.00;;;23.50;44.80;;;;;;5094129;28;20573;-78
2021/04/01 14:22:38;;;;;;;44.00;36.27;;;23.50;45.40;;;;;;5059487;28;20621;-78
2021/04/01 14:25:13;;;;;;;46.77;38.43;;;23.30;45.20;;;;;;5059438;28;20605;-78
2021/04/01 14:27:45;;;;;;;50.70;37.27;;;23.20;45.30;;;;;;5093783;28;20604;-77
2021/04/01 14:30:16;;;;;;;46.47;37.43;;;23.20;45.50;;;;;;5059361;28;20584;-77
2021/04/01 14:32:45;;;;;;;51.30;38.43;;;23.10;45.70;;;;;;5094586;28;20569;-77
2021/04/01 14:35:14;;;;;;;44.27;37.37;;;23.10;46.00;;;;;;5079887;28;20590;-77
2021/04/01 14:37:41;;;;;;;49.30;35.30;;;23.00;46.10;;;;;;5075682;28;20651;-77
2021/04/01 14:40:10;;;;;;;44.13;36.47;;;23.00;46.10;;;;;;5093379;28;20577;-77
2021/04/01 14:42:43;;;;;;;47.70;35.53;;;23.00;47.30;;;;;;5075884;28;20621;-77